sensor_id;sensor_type;location;lat;lon;timestamp;temperature;humidity
29575;DHT22;16507;51.046;6.406;2022-12-18T00:01:26;-6.60;99.90
29575;DHT22;16507;51.046;6.406;2022-12-18T00:03:53;-6.50;99.90
29575;DHT22;16507;51.046;6.406;2022-12-18T00:06:20;-6.60;99.90
29575;DHT22;16507;51.046;6.406;2022-12-18T00:08:46;-6.60;99.90
29575;DHT22;16507;51.046;6.406;2022-12-18T00:11:15;-6.60;99.90
29575;DHT22;16507;51.046;6.406;2022-12-18T00:13:41;-6.60;99.90
29575;DHT22;16507;51.046;6.406;2022-12-18T00:16:10;-6.50;99.90
29575;DHT22;16507;51.046;6.406;2022-12-18T00:18:36;-6.50;99.90
29575;DHT22;16507;51.046;6.406;2022-12-18T00:21:04;-6.50;99.90
29575;DHT22;16507;51.046;6.406;2022-12-18T00:23:31;-6.50;99.90
29575;DHT22;16507;51.046;6.406;2022-12-18T00:26:06;-6.40;99.90
29575;DHT22;16507;51.046;6.406;2022-12-18T00:28:32;-6.50;99.90
29575;DHT22;16507;51.046;6.406;2022-12-18T00:31:12;-6.50;99.90
29575;DHT22;16507;51.046;6.406;2022-12-18T00:33:38;-6.50;99.90
29575;DHT22;16507;51.046;6.406;2022-12-18T00:36:13;-6.60;99.90
29575;DHT22;16507;51.046;6.406;2022-12-18T00:38:39;-6.60;99.90
29575;DHT22;16507;51.046;6.406;2022-12-18T00:41:06;-6.70;99.90
29575;DHT22;16507;51.046;6.406;2022-12-18T00:43:32;-6.60;99.90
29575;DHT22;16507;51.046;6.406;2022-12-18T00:45:57;-6.60;99.90
29575;DHT22;16507;51.046;6.406;2022-12-18T00:48:23;-6.50;99.90
29575;DHT22;16507;51.046;6.406;2022-12-18T00:50:52;-6.50;99.90
29575;DHT22;16507;51.046;6.406;2022-12-18T00:53:18;-6.60;99.90
29575;DHT22;16507;51.046;6.406;2022-12-18T00:55:44;-6.60;99.90
29575;DHT22;16507;51.046;6.406;2022-12-18T00:58:11;-6.50;99.90
29575;DHT22;16507;51.046;6.406;2022-12-18T01:00:36;-6.50;99.90
29575;DHT22;16507;51.046;6.406;2022-12-18T01:03:03;-6.40;99.90
29575;DHT22;16507;51.046;6.406;2022-12-18T01:05:30;-6.30;99.90
29575;DHT22;16507;51.046;6.406;2022-12-18T01:07:56;-6.40;99.90
29575;DHT22;16507;51.046;6.406;2022-12-18T01:10:23;-6.50;99.90
29575;DHT22;16507;51.046;6.406;2022-12-18T01:12:49;-6.50;99.90
29575;DHT22;16507;51.046;6.406;2022-12-18T01:15:15;-6.50;99.90
29575;DHT22;16507;51.046;6.406;2022-12-18T01:17:41;-6.60;99.90
29575;DHT22;16507;51.046;6.406;2022-12-18T01:20:08;-6.60;99.90
29575;DHT22;16507;51.046;6.406;2022-12-18T01:22:35;-6.50;99.90
29575;DHT22;16507;51.046;6.406;2022-12-18T01:25:00;-6.40;99.90
29575;DHT22;16507;51.046;6.406;2022-12-18T01:27:26;-6.30;99.90
29575;DHT22;16507;51.046;6.406;2022-12-18T01:29:52;-6.30;99.90
29575;DHT22;16507;51.046;6.406;2022-12-18T01:32:18;-6.30;99.90
29575;DHT22;16507;51.046;6.406;2022-12-18T01:34:43;-6.40;99.90
29575;DHT22;16507;51.046;6.406;2022-12-18T01:37:09;-6.40;99.90
29575;DHT22;16507;51.046;6.406;2022-12-18T01:39:34;-6.50;99.90
29575;DHT22;16507;51.046;6.406;2022-12-18T01:42:21;-6.60;99.90
29575;DHT22;16507;51.046;6.406;2022-12-18T01:49:50;-6.80;99.90
29575;DHT22;16507;51.046;6.406;2022-12-18T01:52:17;-6.90;99.90
29575;DHT22;16507;51.046;6.406;2022-12-18T01:54:43;-6.90;99.90
29575;DHT22;16507;51.046;6.406;2022-12-18T01:57:10;-6.80;99.90
29575;DHT22;16507;51.046;6.406;2022-12-18T01:59:36;-6.80;99.90
29575;DHT22;16507;51.046;6.406;2022-12-18T02:02:03;-6.80;99.90
29575;DHT22;16507;51.046;6.406;2022-12-18T02:04:28;-6.70;99.90
29575;DHT22;16507;51.046;6.406;2022-12-18T02:07:11;-6.80;99.90
29575;DHT22;16507;51.046;6.406;2022-12-18T02:09:46;-6.80;99.90
29575;DHT22;16507;51.046;6.406;2022-12-18T02:12:20;-6.80;99.90
29575;DHT22;16507;51.046;6.406;2022-12-18T02:15:04;-6.80;99.90
29575;DHT22;16507;51.046;6.406;2022-12-18T02:17:47;-6.80;99.90
29575;DHT22;16507;51.046;6.406;2022-12-18T02:20:25;-6.80;99.90
29575;DHT22;16507;51.046;6.406;2022-12-18T02:26:25;-6.80;99.90
29575;DHT22;16507;51.046;6.406;2022-12-18T02:29:10;-6.80;99.90
29575;DHT22;16507;51.046;6.406;2022-12-18T02:31:43;-6.90;99.90
29575;DHT22;16507;51.046;6.406;2022-12-18T02:34:11;-6.80;99.90
29575;DHT22;16507;51.046;6.406;2022-12-18T02:36:40;-6.70;99.90
29575;DHT22;16507;51.046;6.406;2022-12-18T02:39:09;-6.60;99.90
29575;DHT22;16507;51.046;6.406;2022-12-18T02:41:36;-6.60;99.90
29575;DHT22;16507;51.046;6.406;2022-12-18T02:44:07;-6.60;99.90
29575;DHT22;16507;51.046;6.406;2022-12-18T02:46:38;-6.60;99.90
29575;DHT22;16507;51.046;6.406;2022-12-18T02:49:28;-6.60;99.90
29575;DHT22;16507;51.046;6.406;2022-12-18T02:52:24;-6.50;99.90
29575;DHT22;16507;51.046;6.406;2022-12-18T02:57:47;-6.40;99.90
29575;DHT22;16507;51.046;6.406;2022-12-18T03:00:23;-6.40;99.90
29575;DHT22;16507;51.046;6.406;2022-12-18T03:03:03;-6.50;99.90
29575;DHT22;16507;51.046;6.406;2022-12-18T03:05:41;-6.50;99.90
29575;DHT22;16507;51.046;6.406;2022-12-18T03:08:15;-6.50;99.90
29575;DHT22;16507;51.046;6.406;2022-12-18T03:10:51;-6.50;99.90
29575;DHT22;16507;51.046;6.406;2022-12-18T03:13:50;-6.50;99.90
29575;DHT22;16507;51.046;6.406;2022-12-18T03:16:24;-6.60;99.90
29575;DHT22;16507;51.046;6.406;2022-12-18T03:19:01;-6.60;99.90
29575;DHT22;16507;51.046;6.406;2022-12-18T03:21:36;-6.60;99.90
29575;DHT22;16507;51.046;6.406;2022-12-18T03:24:06;-6.70;99.90
29575;DHT22;16507;51.046;6.406;2022-12-18T03:26:35;-6.60;99.90
29575;DHT22;16507;51.046;6.406;2022-12-18T03:29:09;-6.60;99.90
29575;DHT22;16507;51.046;6.406;2022-12-18T03:31:40;-6.70;99.90
29575;DHT22;16507;51.046;6.406;2022-12-18T03:34:16;-6.70;99.90
29575;DHT22;16507;51.046;6.406;2022-12-18T03:36:43;-6.70;99.90
29575;DHT22;16507;51.046;6.406;2022-12-18T03:39:08;-6.70;99.90
29575;DHT22;16507;51.046;6.406;2022-12-18T03:42:01;-6.70;99.90
29575;DHT22;16507;51.046;6.406;2022-12-18T03:44:54;-6.60;99.90
29575;DHT22;16507;51.046;6.406;2022-12-18T03:50:13;-6.60;99.90
29575;DHT22;16507;51.046;6.406;2022-12-18T03:52:54;-6.60;99.90
29575;DHT22;16507;51.046;6.406;2022-12-18T03:55:22;-6.60;99.90
29575;DHT22;16507;51.046;6.406;2022-12-18T03:57:49;-6.60;99.90
29575;DHT22;16507;51.046;6.406;2022-12-18T04:00:18;-6.60;99.90
29575;DHT22;16507;51.046;6.406;2022-12-18T04:03:04;-6.50;99.90
29575;DHT22;16507;51.046;6.406;2022-12-18T04:05:32;-6.60;99.90
29575;DHT22;16507;51.046;6.406;2022-12-18T04:07:59;-6.60;99.90
29575;DHT22;16507;51.046;6.406;2022-12-18T04:10:24;-6.50;99.90
29575;DHT22;16507;51.046;6.406;2022-12-18T04:12:50;-6.50;99.90
29575;DHT22;16507;51.046;6.406;2022-12-18T04:15:15;-6.60;99.90
29575;DHT22;16507;51.046;6.406;2022-12-18T04:17:47;-6.60;99.90
29575;DHT22;16507;51.046;6.406;2022-12-18T04:20:14;-6.60;99.90
29575;DHT22;16507;51.046;6.406;2022-12-18T04:22:39;-6.60;99.90
29575;DHT22;16507;51.046;6.406;2022-12-18T04:25:05;-6.60;99.90
29575;DHT22;16507;51.046;6.406;2022-12-18T04:27:31;-6.70;99.90
29575;DHT22;16507;51.046;6.406;2022-12-18T04:29:57;-6.70;99.90
29575;DHT22;16507;51.046;6.406;2022-12-18T04:32:22;-6.70;99.90
29575;DHT22;16507;51.046;6.406;2022-12-18T04:34:48;-6.80;99.90
29575;DHT22;16507;51.046;6.406;2022-12-18T04:37:14;-6.80;99.90
29575;DHT22;16507;51.046;6.406;2022-12-18T04:39:39;-6.90;99.90
29575;DHT22;16507;51.046;6.406;2022-12-18T04:42:05;-6.90;99.90
29575;DHT22;16507;51.046;6.406;2022-12-18T04:44:30;-6.90;99.90
29575;DHT22;16507;51.046;6.406;2022-12-18T04:46:56;-6.90;99.90
29575;DHT22;16507;51.046;6.406;2022-12-18T04:49:22;-6.90;99.90
29575;DHT22;16507;51.046;6.406;2022-12-18T04:51:47;-6.90;99.90
29575;DHT22;16507;51.046;6.406;2022-12-18T04:54:13;-6.80;99.90
29575;DHT22;16507;51.046;6.406;2022-12-18T04:56:39;-6.80;99.90
29575;DHT22;16507;51.046;6.406;2022-12-18T04:59:05;-6.80;99.90
29575;DHT22;16507;51.046;6.406;2022-12-18T05:01:34;-6.90;99.90
29575;DHT22;16507;51.046;6.406;2022-12-18T05:03:59;-6.90;99.90
29575;DHT22;16507;51.046;6.406;2022-12-18T05:06:25;-7.00;99.90
29575;DHT22;16507;51.046;6.406;2022-12-18T05:08:51;-7.00;99.90
29575;DHT22;16507;51.046;6.406;2022-12-18T05:11:16;-7.10;99.90
29575;DHT22;16507;51.046;6.406;2022-12-18T05:13:43;-7.10;99.90
29575;DHT22;16507;51.046;6.406;2022-12-18T05:16:10;-7.10;99.90
29575;DHT22;16507;51.046;6.406;2022-12-18T05:18:36;-7.20;99.90
29575;DHT22;16507;51.046;6.406;2022-12-18T05:21:01;-7.10;99.90
29575;DHT22;16507;51.046;6.406;2022-12-18T05:23:28;-7.10;99.90
29575;DHT22;16507;51.046;6.406;2022-12-18T05:25:55;-7.10;99.90
29575;DHT22;16507;51.046;6.406;2022-12-18T05:28:23;-7.10;99.90
29575;DHT22;16507;51.046;6.406;2022-12-18T05:30:55;-7.10;99.90
29575;DHT22;16507;51.046;6.406;2022-12-18T05:33:22;-7.10;99.90
29575;DHT22;16507;51.046;6.406;2022-12-18T05:35:52;-7.20;99.90
29575;DHT22;16507;51.046;6.406;2022-12-18T05:38:18;-7.20;99.90
29575;DHT22;16507;51.046;6.406;2022-12-18T05:40:44;-7.20;99.90
29575;DHT22;16507;51.046;6.406;2022-12-18T05:43:10;-7.10;99.90
29575;DHT22;16507;51.046;6.406;2022-12-18T05:45:40;-7.10;99.90
29575;DHT22;16507;51.046;6.406;2022-12-18T05:48:06;-7.10;99.90
29575;DHT22;16507;51.046;6.406;2022-12-18T05:50:39;-7.10;99.90
29575;DHT22;16507;51.046;6.406;2022-12-18T05:53:05;-7.10;99.90
29575;DHT22;16507;51.046;6.406;2022-12-18T05:55:35;-7.10;99.90
29575;DHT22;16507;51.046;6.406;2022-12-18T05:58:02;-6.90;99.90
29575;DHT22;16507;51.046;6.406;2022-12-18T06:00:29;-6.80;99.90
29575;DHT22;16507;51.046;6.406;2022-12-18T06:02:55;-6.70;99.90
29575;DHT22;16507;51.046;6.406;2022-12-18T06:05:21;-6.70;99.90
29575;DHT22;16507;51.046;6.406;2022-12-18T06:07:47;-6.70;99.90
29575;DHT22;16507;51.046;6.406;2022-12-18T06:10:12;-6.70;99.90
29575;DHT22;16507;51.046;6.406;2022-12-18T06:12:38;-6.60;99.90
29575;DHT22;16507;51.046;6.406;2022-12-18T06:15:04;-6.60;99.90
29575;DHT22;16507;51.046;6.406;2022-12-18T06:17:31;-6.60;99.90
29575;DHT22;16507;51.046;6.406;2022-12-18T06:19:57;-6.50;99.90
29575;DHT22;16507;51.046;6.406;2022-12-18T06:22:23;-6.50;99.90
29575;DHT22;16507;51.046;6.406;2022-12-18T06:24:49;-6.40;99.90
29575;DHT22;16507;51.046;6.406;2022-12-18T06:27:14;-6.40;99.90
29575;DHT22;16507;51.046;6.406;2022-12-18T06:29:40;-6.30;99.90
29575;DHT22;16507;51.046;6.406;2022-12-18T06:32:06;-6.30;99.90
29575;DHT22;16507;51.046;6.406;2022-12-18T06:34:32;-6.20;99.90
29575;DHT22;16507;51.046;6.406;2022-12-18T06:36:58;-6.20;99.90
29575;DHT22;16507;51.046;6.406;2022-12-18T06:39:24;-6.20;99.90
29575;DHT22;16507;51.046;6.406;2022-12-18T06:41:50;-6.30;99.90
29575;DHT22;16507;51.046;6.406;2022-12-18T06:44:15;-6.30;99.90
29575;DHT22;16507;51.046;6.406;2022-12-18T06:46:41;-6.20;99.90
29575;DHT22;16507;51.046;6.406;2022-12-18T06:49:06;-6.20;99.90
29575;DHT22;16507;51.046;6.406;2022-12-18T06:51:34;-6.30;99.90
29575;DHT22;16507;51.046;6.406;2022-12-18T06:54:00;-6.20;99.90
29575;DHT22;16507;51.046;6.406;2022-12-18T06:56:26;-6.10;99.90
29575;DHT22;16507;51.046;6.406;2022-12-18T06:58:51;-6.20;99.90
29575;DHT22;16507;51.046;6.406;2022-12-18T07:01:17;-6.20;99.90
29575;DHT22;16507;51.046;6.406;2022-12-18T07:03:42;-6.10;99.90
29575;DHT22;16507;51.046;6.406;2022-12-18T07:06:17;-6.10;99.90
29575;DHT22;16507;51.046;6.406;2022-12-18T07:08:43;-6.10;99.90
29575;DHT22;16507;51.046;6.406;2022-12-18T07:11:09;-6.20;99.90
29575;DHT22;16507;51.046;6.406;2022-12-18T07:13:35;-6.30;99.90
29575;DHT22;16507;51.046;6.406;2022-12-18T07:16:08;-6.30;99.90
29575;DHT22;16507;51.046;6.406;2022-12-18T07:18:34;-6.20;99.90
29575;DHT22;16507;51.046;6.406;2022-12-18T07:21:05;-6.10;99.90
29575;DHT22;16507;51.046;6.406;2022-12-18T07:23:32;-6.10;99.90
29575;DHT22;16507;51.046;6.406;2022-12-18T07:26:03;-6.10;99.90
29575;DHT22;16507;51.046;6.406;2022-12-18T07:28:29;-6.20;99.90
29575;DHT22;16507;51.046;6.406;2022-12-18T07:30:55;-6.20;99.90
29575;DHT22;16507;51.046;6.406;2022-12-18T07:33:21;-6.20;99.90
29575;DHT22;16507;51.046;6.406;2022-12-18T07:35:46;-6.20;99.90
29575;DHT22;16507;51.046;6.406;2022-12-18T07:38:12;-6.20;99.90
29575;DHT22;16507;51.046;6.406;2022-12-18T07:40:37;-6.20;99.90
29575;DHT22;16507;51.046;6.406;2022-12-18T07:43:04;-6.20;99.90
29575;DHT22;16507;51.046;6.406;2022-12-18T07:45:32;-6.20;99.90
29575;DHT22;16507;51.046;6.406;2022-12-18T07:47:58;-6.20;99.90
29575;DHT22;16507;51.046;6.406;2022-12-18T07:50:23;-6.10;99.90
29575;DHT22;16507;51.046;6.406;2022-12-18T07:52:49;-6.20;99.90
29575;DHT22;16507;51.046;6.406;2022-12-18T08:02:00;-5.90;99.90
29575;DHT22;16507;51.046;6.406;2022-12-18T08:04:25;-5.90;99.90
29575;DHT22;16507;51.046;6.406;2022-12-18T08:06:51;-5.80;99.90
29575;DHT22;16507;51.046;6.406;2022-12-18T08:09:16;-5.70;99.90
29575;DHT22;16507;51.046;6.406;2022-12-18T08:11:42;-5.60;99.90
29575;DHT22;16507;51.046;6.406;2022-12-18T08:14:08;-5.60;99.90
29575;DHT22;16507;51.046;6.406;2022-12-18T08:16:34;-5.50;99.90
29575;DHT22;16507;51.046;6.406;2022-12-18T08:18:59;-5.30;99.90
29575;DHT22;16507;51.046;6.406;2022-12-18T08:21:27;-5.30;99.90
29575;DHT22;16507;51.046;6.406;2022-12-18T08:23:55;-5.20;99.90
29575;DHT22;16507;51.046;6.406;2022-12-18T08:26:22;-5.10;99.90
29575;DHT22;16507;51.046;6.406;2022-12-18T08:28:48;-5.10;99.90
29575;DHT22;16507;51.046;6.406;2022-12-18T08:31:14;-5.00;99.90
29575;DHT22;16507;51.046;6.406;2022-12-18T08:33:40;-5.00;99.90
29575;DHT22;16507;51.046;6.406;2022-12-18T08:36:07;-5.00;99.90
29575;DHT22;16507;51.046;6.406;2022-12-18T08:38:33;-4.90;99.90
29575;DHT22;16507;51.046;6.406;2022-12-18T08:41:03;-4.80;99.90
29575;DHT22;16507;51.046;6.406;2022-12-18T08:43:29;-4.80;99.90
29575;DHT22;16507;51.046;6.406;2022-12-18T08:46:14;-4.60;99.90
29575;DHT22;16507;51.046;6.406;2022-12-18T08:48:39;-4.50;99.90
29575;DHT22;16507;51.046;6.406;2022-12-18T08:51:05;-4.40;99.90
29575;DHT22;16507;51.046;6.406;2022-12-18T08:53:31;-4.30;99.90
29575;DHT22;16507;51.046;6.406;2022-12-18T08:55:57;-4.20;99.90
29575;DHT22;16507;51.046;6.406;2022-12-18T08:58:23;-4.10;99.90
29575;DHT22;16507;51.046;6.406;2022-12-18T09:00:49;-4.00;99.90
29575;DHT22;16507;51.046;6.406;2022-12-18T09:03:16;-3.90;99.90
29575;DHT22;16507;51.046;6.406;2022-12-18T09:05:43;-3.90;99.90
29575;DHT22;16507;51.046;6.406;2022-12-18T09:08:10;-3.90;99.90
29575;DHT22;16507;51.046;6.406;2022-12-18T09:10:42;-3.90;99.90
29575;DHT22;16507;51.046;6.406;2022-12-18T09:13:09;-3.90;99.90
29575;DHT22;16507;51.046;6.406;2022-12-18T09:15:46;-3.80;99.90
29575;DHT22;16507;51.046;6.406;2022-12-18T09:18:13;-3.70;99.90
29575;DHT22;16507;51.046;6.406;2022-12-18T09:20:39;-3.60;99.90
29575;DHT22;16507;51.046;6.406;2022-12-18T09:23:06;-3.40;99.90
29575;DHT22;16507;51.046;6.406;2022-12-18T09:25:33;-3.30;99.90
29575;DHT22;16507;51.046;6.406;2022-12-18T09:28:06;-3.30;99.90
29575;DHT22;16507;51.046;6.406;2022-12-18T09:30:37;-3.20;99.90
29575;DHT22;16507;51.046;6.406;2022-12-18T09:33:03;-3.10;99.90
29575;DHT22;16507;51.046;6.406;2022-12-18T09:35:29;-3.10;99.90
29575;DHT22;16507;51.046;6.406;2022-12-18T09:37:54;-3.10;99.90
29575;DHT22;16507;51.046;6.406;2022-12-18T09:40:22;-3.00;99.90
29575;DHT22;16507;51.046;6.406;2022-12-18T09:42:53;-3.00;99.90
29575;DHT22;16507;51.046;6.406;2022-12-18T09:45:20;-2.90;99.90
29575;DHT22;16507;51.046;6.406;2022-12-18T09:47:47;-2.90;99.90
29575;DHT22;16507;51.046;6.406;2022-12-18T09:50:35;-2.90;99.90
29575;DHT22;16507;51.046;6.406;2022-12-18T09:53:06;-2.80;99.90
29575;DHT22;16507;51.046;6.406;2022-12-18T09:55:41;-2.80;99.90
29575;DHT22;16507;51.046;6.406;2022-12-18T10:00:42;-2.70;99.90
29575;DHT22;16507;51.046;6.406;2022-12-18T10:03:15;-2.60;99.90
29575;DHT22;16507;51.046;6.406;2022-12-18T10:05:43;-2.50;99.90
29575;DHT22;16507;51.046;6.406;2022-12-18T10:08:18;-2.40;99.90
29575;DHT22;16507;51.046;6.406;2022-12-18T10:10:53;-2.30;99.90
29575;DHT22;16507;51.046;6.406;2022-12-18T10:21:17;-2.00;99.90
29575;DHT22;16507;51.046;6.406;2022-12-18T10:24:00;-1.90;99.90
29575;DHT22;16507;51.046;6.406;2022-12-18T10:26:28;-2.00;99.90
29575;DHT22;16507;51.046;6.406;2022-12-18T10:28:54;-2.00;99.90
29575;DHT22;16507;51.046;6.406;2022-12-18T10:31:23;-2.00;99.90
29575;DHT22;16507;51.046;6.406;2022-12-18T10:33:48;-1.90;99.90
29575;DHT22;16507;51.046;6.406;2022-12-18T10:36:14;-1.90;99.90
29575;DHT22;16507;51.046;6.406;2022-12-18T10:38:40;-1.80;99.90
29575;DHT22;16507;51.046;6.406;2022-12-18T10:41:25;-1.80;99.90
29575;DHT22;16507;51.046;6.406;2022-12-18T10:44:24;-1.80;99.90
29575;DHT22;16507;51.046;6.406;2022-12-18T10:46:55;-1.80;99.90
29575;DHT22;16507;51.046;6.406;2022-12-18T10:49:29;-1.80;99.90
29575;DHT22;16507;51.046;6.406;2022-12-18T10:52:15;-1.70;99.90
29575;DHT22;16507;51.046;6.406;2022-12-18T10:55:02;-1.60;99.90
29575;DHT22;16507;51.046;6.406;2022-12-18T10:59:58;-1.60;99.90
29575;DHT22;16507;51.046;6.406;2022-12-18T11:02:42;-1.50;99.90
29575;DHT22;16507;51.046;6.406;2022-12-18T11:05:28;-1.50;99.90
29575;DHT22;16507;51.046;6.406;2022-12-18T11:07:55;-1.40;99.90
29575;DHT22;16507;51.046;6.406;2022-12-18T11:10:25;-1.50;99.90
29575;DHT22;16507;51.046;6.406;2022-12-18T11:12:52;-1.40;99.90
29575;DHT22;16507;51.046;6.406;2022-12-18T11:15:21;-1.40;99.90
29575;DHT22;16507;51.046;6.406;2022-12-18T11:17:50;-1.40;99.90
29575;DHT22;16507;51.046;6.406;2022-12-18T11:20:35;-1.30;99.90
29575;DHT22;16507;51.046;6.406;2022-12-18T11:23:04;-1.30;99.90
29575;DHT22;16507;51.046;6.406;2022-12-18T11:25:31;-1.30;99.90
29575;DHT22;16507;51.046;6.406;2022-12-18T11:28:03;-1.30;99.90
29575;DHT22;16507;51.046;6.406;2022-12-18T11:30:34;-1.30;99.90
29575;DHT22;16507;51.046;6.406;2022-12-18T11:33:20;-1.30;99.90
29575;DHT22;16507;51.046;6.406;2022-12-18T11:35:58;-1.30;99.90
29575;DHT22;16507;51.046;6.406;2022-12-18T11:38:39;-1.30;99.90
29575;DHT22;16507;51.046;6.406;2022-12-18T11:41:30;-1.30;99.90
29575;DHT22;16507;51.046;6.406;2022-12-18T11:44:35;-1.20;99.90
29575;DHT22;16507;51.046;6.406;2022-12-18T11:49:49;-1.30;99.90
29575;DHT22;16507;51.046;6.406;2022-12-18T11:52:36;-1.30;99.90
29575;DHT22;16507;51.046;6.406;2022-12-18T12:18:46;-1.30;99.90
29575;DHT22;16507;51.046;6.406;2022-12-18T12:21:49;-1.30;99.90
29575;DHT22;16507;51.046;6.406;2022-12-18T12:26:38;-1.30;99.90
29575;DHT22;16507;51.046;6.406;2022-12-18T12:29:27;-1.30;99.90
29575;DHT22;16507;51.046;6.406;2022-12-18T12:34:46;-1.20;99.90
29575;DHT22;16507;51.046;6.406;2022-12-18T12:39:44;-1.20;99.90
29575;DHT22;16507;51.046;6.406;2022-12-18T12:42:44;-1.10;99.90
29575;DHT22;16507;51.046;6.406;2022-12-18T12:48:46;-1.00;99.90
29575;DHT22;16507;51.046;6.406;2022-12-18T12:51:17;-1.00;99.90
29575;DHT22;16507;51.046;6.406;2022-12-18T12:53:43;-1.10;99.90
29575;DHT22;16507;51.046;6.406;2022-12-18T12:56:13;-1.10;99.90
29575;DHT22;16507;51.046;6.406;2022-12-18T13:02:20;-1.10;99.90
29575;DHT22;16507;51.046;6.406;2022-12-18T13:07:15;-1.10;99.90
29575;DHT22;16507;51.046;6.406;2022-12-18T13:10:11;-1.10;99.90
29575;DHT22;16507;51.046;6.406;2022-12-18T13:12:37;-1.20;99.90
29575;DHT22;16507;51.046;6.406;2022-12-18T13:23:36;-1.20;99.90
29575;DHT22;16507;51.046;6.406;2022-12-18T13:31:57;-1.20;99.90
29575;DHT22;16507;51.046;6.406;2022-12-18T13:34:17;-1.20;99.90
29575;DHT22;16507;51.046;6.406;2022-12-18T13:36:45;-1.30;99.90
29575;DHT22;16507;51.046;6.406;2022-12-18T13:39:21;-1.30;99.90
29575;DHT22;16507;51.046;6.406;2022-12-18T13:41:52;-1.40;99.90
29575;DHT22;16507;51.046;6.406;2022-12-18T13:44:39;-1.40;99.90
29575;DHT22;16507;51.046;6.406;2022-12-18T13:47:34;-1.50;99.90
29575;DHT22;16507;51.046;6.406;2022-12-18T13:50:13;-1.50;99.90
29575;DHT22;16507;51.046;6.406;2022-12-18T13:52:45;-1.50;99.90
29575;DHT22;16507;51.046;6.406;2022-12-18T13:55:18;-1.50;99.90
29575;DHT22;16507;51.046;6.406;2022-12-18T13:57:44;-1.50;99.90
29575;DHT22;16507;51.046;6.406;2022-12-18T14:00:24;-1.50;99.90
29575;DHT22;16507;51.046;6.406;2022-12-18T14:02:51;-1.50;99.90
29575;DHT22;16507;51.046;6.406;2022-12-18T14:08:10;-1.50;99.90
29575;DHT22;16507;51.046;6.406;2022-12-18T14:10:41;-1.50;99.90
29575;DHT22;16507;51.046;6.406;2022-12-18T14:13:09;-1.50;99.90
29575;DHT22;16507;51.046;6.406;2022-12-18T14:15:42;-1.50;99.90
29575;DHT22;16507;51.046;6.406;2022-12-18T14:20:54;-1.50;99.90
29575;DHT22;16507;51.046;6.406;2022-12-18T14:23:39;-1.50;99.90
29575;DHT22;16507;51.046;6.406;2022-12-18T14:26:26;-1.50;99.90
29575;DHT22;16507;51.046;6.406;2022-12-18T14:28:55;-1.50;99.90
29575;DHT22;16507;51.046;6.406;2022-12-18T14:31:23;-1.50;99.90
29575;DHT22;16507;51.046;6.406;2022-12-18T14:33:50;-1.50;99.90
29575;DHT22;16507;51.046;6.406;2022-12-18T14:36:20;-1.50;99.90
29575;DHT22;16507;51.046;6.406;2022-12-18T14:38:53;-1.50;99.90
29575;DHT22;16507;51.046;6.406;2022-12-18T14:41:20;-1.50;99.90
29575;DHT22;16507;51.046;6.406;2022-12-18T14:43:48;-1.60;99.90
29575;DHT22;16507;51.046;6.406;2022-12-18T14:48:59;-1.60;99.90
29575;DHT22;16507;51.046;6.406;2022-12-18T14:51:28;-1.60;99.90
29575;DHT22;16507;51.046;6.406;2022-12-18T14:56:25;-1.60;99.90
29575;DHT22;16507;51.046;6.406;2022-12-18T14:58:55;-1.60;99.90
29575;DHT22;16507;51.046;6.406;2022-12-18T15:01:39;-1.60;99.90
29575;DHT22;16507;51.046;6.406;2022-12-18T15:04:39;-1.60;99.90
29575;DHT22;16507;51.046;6.406;2022-12-18T15:07:23;-1.60;99.90
29575;DHT22;16507;51.046;6.406;2022-12-18T15:10:17;-1.70;99.90
29575;DHT22;16507;51.046;6.406;2022-12-18T15:12:44;-1.60;99.90
29575;DHT22;16507;51.046;6.406;2022-12-18T15:20:31;-1.70;99.90
29575;DHT22;16507;51.046;6.406;2022-12-18T15:22:57;-1.80;99.90
29575;DHT22;16507;51.046;6.406;2022-12-18T15:25:36;-1.80;99.90
29575;DHT22;16507;51.046;6.406;2022-12-18T15:28:04;-1.80;99.90
29575;DHT22;16507;51.046;6.406;2022-12-18T15:30:40;-1.90;99.90
29575;DHT22;16507;51.046;6.406;2022-12-18T15:33:25;-1.90;99.90
29575;DHT22;16507;51.046;6.406;2022-12-18T15:36:02;-2.00;99.90
29575;DHT22;16507;51.046;6.406;2022-12-18T15:38:28;-2.00;99.90
29575;DHT22;16507;51.046;6.406;2022-12-18T15:40:54;-2.00;99.90
29575;DHT22;16507;51.046;6.406;2022-12-18T15:43:22;-2.10;99.90
29575;DHT22;16507;51.046;6.406;2022-12-18T15:46:09;-2.00;99.90
29575;DHT22;16507;51.046;6.406;2022-12-18T15:48:40;-2.10;99.90
29575;DHT22;16507;51.046;6.406;2022-12-18T15:51:13;-2.10;99.90
29575;DHT22;16507;51.046;6.406;2022-12-18T15:53:40;-2.10;99.90
29575;DHT22;16507;51.046;6.406;2022-12-18T15:56:10;-2.10;99.90
29575;DHT22;16507;51.046;6.406;2022-12-18T15:58:55;-2.10;99.90
29575;DHT22;16507;51.046;6.406;2022-12-18T16:01:24;-2.10;99.90
29575;DHT22;16507;51.046;6.406;2022-12-18T16:03:50;-2.10;99.90
29575;DHT22;16507;51.046;6.406;2022-12-18T16:06:16;-2.10;99.90
29575;DHT22;16507;51.046;6.406;2022-12-18T16:08:41;-2.10;99.90
29575;DHT22;16507;51.046;6.406;2022-12-18T16:11:23;-2.10;99.90
29575;DHT22;16507;51.046;6.406;2022-12-18T16:14:24;-2.10;99.90
29575;DHT22;16507;51.046;6.406;2022-12-18T16:16:56;-2.10;99.90
29575;DHT22;16507;51.046;6.406;2022-12-18T16:19:22;-2.10;99.90
29575;DHT22;16507;51.046;6.406;2022-12-18T16:21:50;-2.10;99.90
29575;DHT22;16507;51.046;6.406;2022-12-18T16:24:18;-2.10;99.90
29575;DHT22;16507;51.046;6.406;2022-12-18T16:26:44;-2.10;99.90
29575;DHT22;16507;51.046;6.406;2022-12-18T16:29:10;-2.10;99.90
29575;DHT22;16507;51.046;6.406;2022-12-18T16:31:36;-2.10;99.90
29575;DHT22;16507;51.046;6.406;2022-12-18T16:34:22;-2.10;99.90
29575;DHT22;16507;51.046;6.406;2022-12-18T16:36:48;-2.10;99.90
29575;DHT22;16507;51.046;6.406;2022-12-18T16:39:15;-2.10;99.90
29575;DHT22;16507;51.046;6.406;2022-12-18T16:41:41;-2.10;99.90
29575;DHT22;16507;51.046;6.406;2022-12-18T16:44:06;-2.10;99.90
29575;DHT22;16507;51.046;6.406;2022-12-18T16:46:32;-2.10;99.90
29575;DHT22;16507;51.046;6.406;2022-12-18T16:48:58;-2.10;99.90
29575;DHT22;16507;51.046;6.406;2022-12-18T16:51:25;-2.10;99.90
29575;DHT22;16507;51.046;6.406;2022-12-18T16:53:52;-2.10;99.90
29575;DHT22;16507;51.046;6.406;2022-12-18T16:56:19;-2.10;99.90
29575;DHT22;16507;51.046;6.406;2022-12-18T16:58:53;-2.10;99.90
29575;DHT22;16507;51.046;6.406;2022-12-18T17:01:19;-2.10;99.90
29575;DHT22;16507;51.046;6.406;2022-12-18T17:03:51;-2.10;99.90
29575;DHT22;16507;51.046;6.406;2022-12-18T17:06:17;-2.00;99.90
29575;DHT22;16507;51.046;6.406;2022-12-18T17:08:43;-2.00;99.90
29575;DHT22;16507;51.046;6.406;2022-12-18T17:11:08;-2.00;99.90
29575;DHT22;16507;51.046;6.406;2022-12-18T17:13:34;-2.00;99.90
29575;DHT22;16507;51.046;6.406;2022-12-18T17:16:04;-2.00;99.90
29575;DHT22;16507;51.046;6.406;2022-12-18T17:18:31;-2.00;99.90
29575;DHT22;16507;51.046;6.406;2022-12-18T17:21:02;-1.90;99.90
29575;DHT22;16507;51.046;6.406;2022-12-18T17:23:28;-1.90;99.90
29575;DHT22;16507;51.046;6.406;2022-12-18T17:25:56;-1.90;99.90
29575;DHT22;16507;51.046;6.406;2022-12-18T17:28:24;-1.90;99.90
29575;DHT22;16507;51.046;6.406;2022-12-18T17:30:54;-1.90;99.90
29575;DHT22;16507;51.046;6.406;2022-12-18T17:33:20;-1.90;99.90
29575;DHT22;16507;51.046;6.406;2022-12-18T17:35:45;-1.80;99.90
29575;DHT22;16507;51.046;6.406;2022-12-18T17:38:12;-1.80;99.90